createdAt,value
2018-09-03T00:02:09.754Z,16.10
2018-09-03T00:04:38.024Z,16.10
2018-09-03T00:07:06.275Z,16.00
2018-09-03T00:09:41.122Z,15.90
2018-09-03T00:12:09.994Z,15.90
2018-09-03T00:14:38.286Z,16.10
2018-09-03T00:17:07.276Z,16.20
2018-09-03T00:19:35.617Z,16.20
2018-09-03T00:22:03.882Z,16.30
2018-09-03T00:24:32.102Z,16.20
2018-09-03T00:27:00.422Z,16.10
2018-09-03T00:29:28.634Z,15.90
2018-09-03T00:32:02.209Z,15.70
2018-09-03T00:34:35.969Z,15.60
2018-09-03T00:37:09.703Z,15.50
2018-09-03T00:39:43.383Z,15.60
2018-09-03T00:42:17.013Z,15.60
2018-09-03T00:44:51.153Z,15.60
2018-09-03T00:47:19.406Z,15.70
2018-09-03T00:49:47.870Z,15.80
2018-09-03T00:52:16.431Z,15.80
2018-09-03T00:54:44.664Z,15.80
2018-09-03T00:57:12.906Z,15.80
2018-09-03T00:59:41.149Z,15.80
2018-09-03T01:02:09.386Z,15.80
2018-09-03T01:04:37.611Z,15.80
2018-09-03T01:07:05.871Z,15.90
2018-09-03T01:09:34.094Z,16.00
2018-09-03T01:12:02.333Z,15.90
2018-09-03T01:14:30.793Z,15.90
2018-09-03T01:16:59.023Z,16.00
2018-09-03T01:19:27.278Z,16.00
2018-09-03T01:21:55.539Z,16.00
2018-09-03T01:24:23.782Z,15.90
2018-09-03T01:26:52.065Z,15.80
2018-09-03T01:29:20.295Z,15.80
2018-09-03T01:31:48.553Z,15.80
2018-09-03T01:34:16.787Z,15.80
2018-09-03T01:36:45.019Z,15.90
2018-09-03T01:39:13.247Z,15.80
2018-09-03T01:41:47.709Z,15.80
2018-09-03T01:44:15.932Z,15.90
2018-09-03T01:46:44.183Z,16.00
2018-09-03T01:49:12.401Z,15.90
2018-09-03T01:51:40.643Z,15.90
2018-09-03T01:54:08.862Z,15.90
2018-09-03T01:56:37.099Z,15.80
2018-09-03T01:59:05.356Z,15.90
2018-09-03T02:01:33.583Z,15.80
2018-09-03T02:04:01.818Z,15.80
2018-09-03T02:06:30.080Z,15.90
2018-09-03T02:08:58.306Z,15.90
2018-09-03T02:11:26.542Z,16.00
2018-09-03T02:13:54.777Z,16.00
2018-09-03T02:16:23.007Z,16.10
2018-09-03T02:18:51.254Z,16.10
2018-09-03T02:21:19.503Z,16.10
2018-09-03T02:23:47.742Z,16.10
2018-09-03T02:26:15.983Z,16.00
2018-09-03T02:28:44.227Z,16.00
2018-09-03T02:31:12.441Z,16.00
2018-09-03T02:33:40.674Z,16.00
2018-09-03T02:36:08.927Z,15.80
2018-09-03T02:38:37.165Z,15.80
2018-09-03T02:41:05.594Z,15.70
2018-09-03T02:43:33.886Z,15.70
2018-09-03T02:46:02.108Z,15.80
2018-09-03T02:48:30.336Z,15.90
2018-09-03T02:50:58.556Z,15.80
2018-09-03T02:53:26.798Z,16.00
2018-09-03T02:55:55.011Z,16.00
2018-09-03T02:58:23.249Z,15.80
2018-09-03T03:00:51.480Z,15.70
2018-09-03T03:03:19.734Z,15.70
2018-09-03T03:05:47.971Z,15.70
2018-09-03T03:08:16.245Z,15.70
2018-09-03T03:10:44.496Z,15.90
2018-09-03T03:13:12.761Z,16.00
2018-09-03T03:15:40.984Z,16.00
2018-09-03T03:18:09.202Z,15.90
2018-09-03T03:20:37.442Z,15.90
2018-09-03T03:23:05.670Z,15.90
2018-09-03T03:25:33.922Z,16.10
2018-09-03T03:28:02.162Z,16.00
2018-09-03T03:30:30.397Z,15.90
2018-09-03T03:32:58.628Z,15.80
2018-09-03T03:38:01.506Z,15.70
2018-09-03T03:40:29.770Z,15.60
2018-09-03T03:42:57.994Z,15.60
2018-09-03T03:45:26.252Z,15.70
2018-09-03T03:47:54.528Z,15.80
2018-09-03T03:50:22.771Z,15.90
2018-09-03T03:52:51.011Z,16.00
2018-09-03T03:55:19.279Z,16.00
2018-09-03T03:57:47.520Z,15.90
2018-09-03T04:00:15.798Z,15.90
2018-09-03T04:02:44.055Z,15.90
2018-09-03T04:05:12.285Z,15.90
2018-09-03T04:07:40.538Z,15.80
2018-09-03T04:10:08.794Z,15.90
2018-09-03T04:12:37.020Z,15.90
2018-09-03T04:15:05.378Z,15.90
2018-09-03T04:17:33.642Z,15.90
2018-09-03T04:20:04.050Z,15.90
2018-09-03T04:22:33.229Z,15.90
2018-09-03T04:25:02.141Z,15.80
2018-09-03T04:27:30.387Z,15.80
2018-09-03T04:29:58.640Z,15.80
2018-09-03T04:32:26.898Z,15.90
2018-09-03T04:34:55.161Z,16.00
2018-09-03T04:37:23.393Z,16.00
2018-09-03T04:39:51.644Z,15.90
2018-09-03T04:42:19.878Z,16.00
2018-09-03T04:44:48.122Z,16.00
2018-09-03T04:47:16.371Z,16.00
2018-09-03T04:49:44.607Z,16.00
2018-09-03T04:52:12.866Z,15.90
2018-09-03T04:54:41.110Z,15.90
2018-09-03T04:57:09.350Z,15.90
2018-09-03T04:59:37.583Z,15.70
2018-09-03T05:02:06.168Z,15.70
2018-09-03T05:04:34.410Z,15.60
2018-09-03T05:07:02.667Z,15.70
2018-09-03T05:09:30.934Z,15.70
2018-09-03T05:11:59.185Z,15.80
2018-09-03T05:14:27.449Z,15.80
2018-09-03T05:16:55.702Z,15.70
2018-09-03T05:19:23.944Z,15.60
2018-09-03T05:21:52.601Z,15.70
2018-09-03T05:24:20.838Z,15.80
2018-09-03T05:26:49.090Z,15.80
2018-09-03T05:29:17.452Z,15.80
2018-09-03T05:31:45.735Z,15.80
2018-09-03T05:34:14.058Z,15.90
2018-09-03T05:36:42.320Z,15.90
2018-09-03T05:39:11.871Z,15.90
2018-09-03T05:41:40.397Z,16.00
2018-09-03T05:44:09.337Z,16.10
2018-09-03T05:46:38.326Z,16.10
2018-09-03T05:49:06.572Z,16.00
2018-09-03T05:51:34.807Z,16.00
2018-09-03T05:54:03.042Z,16.00
2018-09-03T05:56:31.294Z,16.00
2018-09-03T05:58:59.574Z,16.00
2018-09-03T06:01:27.792Z,16.00
2018-09-03T06:03:56.015Z,16.00
2018-09-03T06:06:24.258Z,16.00
2018-09-03T06:08:52.503Z,16.00
2018-09-03T06:11:20.742Z,16.00
2018-09-03T06:13:48.986Z,16.10
2018-09-03T06:16:17.209Z,16.10
2018-09-03T06:18:45.446Z,16.10
2018-09-03T06:21:13.687Z,16.00
2018-09-03T06:23:41.970Z,16.00
2018-09-03T06:26:16.594Z,16.10
2018-09-03T06:28:44.823Z,16.20
2018-09-03T06:31:13.039Z,16.20
2018-09-03T06:33:41.272Z,16.20
2018-09-03T06:36:09.509Z,16.20
2018-09-03T06:38:37.763Z,16.20
2018-09-03T06:41:06.242Z,16.20
2018-09-03T06:43:34.466Z,16.20
2018-09-03T06:46:02.695Z,16.20
2018-09-03T06:48:30.939Z,16.20
2018-09-03T06:50:59.163Z,16.30
2018-09-03T06:53:27.430Z,16.40
2018-09-03T06:55:55.639Z,16.40
2018-09-03T06:58:23.880Z,16.40
2018-09-03T07:00:52.111Z,16.40
2018-09-03T07:03:20.354Z,16.40
2018-09-03T07:05:48.606Z,16.40
2018-09-03T07:08:16.840Z,16.40
2018-09-03T07:10:45.056Z,16.50
2018-09-03T07:13:13.293Z,16.60
2018-09-03T07:15:41.519Z,16.70
2018-09-03T07:18:09.760Z,16.70
2018-09-03T07:20:37.991Z,16.80
2018-09-03T07:23:06.271Z,16.80
2018-09-03T07:25:34.510Z,16.80
2018-09-03T07:28:02.735Z,16.90
2018-09-03T07:30:30.959Z,17.00
2018-09-03T07:32:59.194Z,17.00
2018-09-03T07:35:27.428Z,17.10
2018-09-03T07:37:55.688Z,17.10
2018-09-03T07:40:23.911Z,17.20
2018-09-03T07:42:52.170Z,17.20
2018-09-03T07:45:20.407Z,17.20
2018-09-03T07:47:48.634Z,17.30
2018-09-03T07:50:16.885Z,17.30
2018-09-03T07:52:45.114Z,17.30
2018-09-03T07:55:13.351Z,17.40
2018-09-03T07:57:41.574Z,17.40
2018-09-03T08:00:09.825Z,17.40
2018-09-03T08:02:38.054Z,17.40
2018-09-03T08:05:06.862Z,17.40
2018-09-03T08:07:35.132Z,17.40
2018-09-03T08:10:03.330Z,17.50
2018-09-03T08:12:31.571Z,17.60
2018-09-03T08:14:59.827Z,17.60
2018-09-03T08:17:28.048Z,17.70
2018-09-03T08:19:56.299Z,17.70
2018-09-03T08:22:24.514Z,17.70
2018-09-03T08:24:52.758Z,17.70
2018-09-03T08:27:20.994Z,17.70
2018-09-03T08:29:49.230Z,17.70
2018-09-03T08:32:17.469Z,17.70
2018-09-03T08:34:45.703Z,17.70
2018-09-03T08:37:13.926Z,17.70
2018-09-03T08:39:42.170Z,17.70
2018-09-03T08:42:10.428Z,17.80
2018-09-03T08:44:38.702Z,17.80
2018-09-03T08:47:06.930Z,17.80
2018-09-03T08:49:35.171Z,17.80
2018-09-03T08:52:03.396Z,17.90
2018-09-03T08:54:31.635Z,17.90
2018-09-03T08:56:59.872Z,17.90
2018-09-03T08:59:28.110Z,17.80
2018-09-03T09:01:56.331Z,17.80
2018-09-03T09:04:24.563Z,17.90
2018-09-03T09:06:52.789Z,17.90
2018-09-03T09:09:21.017Z,17.80
2018-09-03T09:11:49.301Z,17.80
2018-09-03T09:14:17.499Z,17.90
2018-09-03T09:16:45.751Z,17.90
2018-09-03T09:19:13.979Z,17.90
2018-09-03T09:21:42.231Z,17.80
2018-09-03T09:24:10.488Z,17.90
2018-09-03T09:26:38.753Z,17.80
2018-09-03T09:29:06.986Z,17.80
2018-09-03T09:31:35.227Z,17.70
2018-09-03T09:34:03.452Z,17.70
2018-09-03T09:36:31.712Z,17.70
2018-09-03T09:38:59.956Z,17.80
2018-09-03T09:41:28.204Z,17.70
2018-09-03T09:43:56.441Z,17.60
2018-09-03T09:46:24.690Z,17.60
2018-09-03T09:48:53.762Z,17.70
2018-09-03T09:51:22.001Z,17.70
2018-09-03T09:53:50.239Z,17.80
2018-09-03T09:56:18.507Z,17.90
2018-09-03T09:58:46.746Z,17.90
2018-09-03T10:01:20.302Z,17.90
2018-09-03T10:03:48.533Z,18.00
2018-09-03T10:06:16.772Z,17.90
2018-09-03T10:08:45.007Z,18.00
2018-09-03T10:11:13.274Z,17.90
2018-09-03T10:13:41.515Z,18.00
2018-09-03T10:16:09.736Z,18.00
2018-09-03T10:18:38.000Z,18.00
2018-09-03T10:21:06.235Z,18.00
2018-09-03T10:23:34.466Z,18.10
2018-09-03T10:26:02.682Z,18.10
2018-09-03T10:28:31.023Z,18.10
2018-09-03T10:30:59.259Z,18.20
2018-09-03T10:33:27.474Z,18.20
2018-09-03T10:35:55.723Z,18.20
2018-09-03T10:38:23.946Z,18.30
2018-09-03T10:40:52.188Z,18.30
2018-09-03T10:43:20.421Z,18.40
2018-09-03T10:45:48.642Z,18.40
2018-09-03T10:48:17.720Z,18.40
2018-09-03T10:50:46.281Z,18.40
2018-09-03T10:53:14.552Z,18.30
2018-09-03T10:55:42.777Z,18.30
2018-09-03T10:58:11.840Z,18.40
2018-09-03T11:00:40.063Z,18.50
2018-09-03T11:03:08.308Z,18.60
2018-09-03T11:05:36.517Z,18.60
2018-09-03T11:08:04.739Z,18.60
2018-09-03T11:10:32.957Z,18.70
2018-09-03T11:13:01.212Z,18.70
2018-09-03T11:15:29.436Z,18.70
2018-09-03T11:17:57.646Z,18.70
2018-09-03T11:20:28.045Z,18.70
2018-09-03T11:22:56.865Z,18.70
2018-09-03T11:25:26.243Z,18.70
2018-09-03T11:27:55.155Z,18.70
2018-09-03T11:30:23.817Z,18.70
2018-09-03T11:32:57.227Z,18.60
2018-09-03T11:35:25.691Z,18.60
2018-09-03T11:37:53.926Z,18.60
2018-09-03T11:40:22.970Z,18.60
2018-09-03T11:42:51.192Z,18.60
2018-09-03T11:45:20.543Z,18.60
2018-09-03T11:47:49.037Z,18.50
2018-09-03T11:50:18.035Z,18.40
2018-09-03T11:52:46.254Z,18.40
2018-09-03T11:55:15.009Z,18.40
2018-09-03T11:57:43.457Z,18.40
2018-09-03T12:00:15.101Z,18.50
2018-09-03T12:02:43.313Z,18.50
2018-09-03T12:05:11.523Z,18.60
2018-09-03T12:07:39.743Z,18.50
2018-09-03T12:10:07.973Z,18.50
2018-09-03T12:12:36.910Z,18.50
2018-09-03T12:15:10.331Z,18.60
2018-09-03T12:17:38.545Z,18.60
2018-09-03T12:20:06.796Z,18.60
2018-09-03T12:22:35.094Z,18.60
2018-09-03T12:25:03.337Z,18.60
2018-09-03T12:27:31.579Z,18.60
2018-09-03T12:30:07.007Z,18.70
2018-09-03T12:32:35.219Z,18.80
2018-09-03T12:35:03.477Z,18.70
2018-09-03T12:37:31.778Z,18.60
2018-09-03T12:40:00.128Z,18.70
2018-09-03T12:42:28.336Z,18.60
2018-09-03T12:44:56.579Z,18.70
2018-09-03T12:47:24.790Z,18.70
2018-09-03T12:49:52.997Z,18.80
2018-09-03T12:52:21.219Z,18.80
2018-09-03T12:54:49.429Z,18.80
2018-09-03T12:57:17.734Z,18.70
2018-09-03T12:59:45.949Z,18.80
2018-09-03T13:02:14.146Z,18.80
2018-09-03T13:04:42.383Z,18.90
2018-09-03T13:07:10.608Z,19.00
2018-09-03T13:09:38.831Z,19.00
2018-09-03T13:12:07.032Z,19.20
2018-09-03T13:14:35.259Z,19.20
2018-09-03T13:17:03.771Z,19.30
2018-09-03T13:19:31.992Z,19.30
2018-09-03T13:22:00.209Z,19.40
2018-09-03T13:24:28.463Z,19.40
2018-09-03T13:26:56.693Z,19.50
2018-09-03T13:29:24.950Z,19.50
2018-09-03T13:31:53.177Z,19.60
2018-09-03T13:34:21.403Z,19.60
2018-09-03T13:36:49.626Z,19.70
2018-09-03T13:39:17.845Z,19.70
2018-09-03T13:41:46.146Z,19.80
2018-09-03T13:44:14.353Z,19.80
2018-09-03T13:46:42.576Z,19.80
2018-09-03T13:49:10.787Z,19.80
2018-09-03T13:51:38.999Z,19.90
2018-09-03T13:54:07.216Z,19.90
2018-09-03T13:56:35.493Z,19.90
2018-09-03T13:59:03.676Z,19.90
2018-09-03T14:01:31.899Z,19.90
2018-09-03T14:04:00.120Z,20.00
2018-09-03T14:06:28.368Z,20.00
2018-09-03T14:08:56.597Z,20.10
2018-09-03T14:11:24.850Z,20.00
2018-09-03T14:13:53.100Z,19.90
2018-09-03T14:16:21.322Z,19.90
2018-09-03T14:18:49.531Z,19.90
2018-09-03T14:21:17.773Z,20.00
2018-09-03T14:23:45.979Z,20.00
2018-09-03T14:26:14.235Z,20.00
2018-09-03T14:28:43.508Z,20.00
2018-09-03T14:31:11.720Z,20.00
2018-09-03T14:33:39.945Z,20.00
2018-09-03T14:36:08.391Z,20.10
2018-09-03T14:38:36.619Z,20.00
2018-09-03T14:41:04.866Z,20.10
2018-09-03T14:43:33.103Z,20.10
2018-09-03T14:46:01.350Z,20.10
2018-09-03T14:48:29.583Z,20.20
2018-09-03T14:50:57.825Z,20.20
2018-09-03T14:53:26.059Z,20.20
2018-09-03T14:55:54.278Z,20.20
2018-09-03T14:58:22.489Z,20.20
2018-09-03T15:00:50.699Z,20.20
2018-09-03T15:03:18.941Z,20.20
2018-09-03T15:05:47.167Z,20.20
2018-09-03T15:08:15.433Z,20.20
2018-09-03T15:10:43.676Z,20.30
2018-09-03T15:13:11.918Z,20.40
2018-09-03T15:15:40.160Z,20.40
2018-09-03T15:18:08.376Z,20.40
2018-09-03T15:20:36.676Z,20.50
2018-09-03T15:23:04.921Z,20.50
2018-09-03T15:25:33.148Z,20.50
2018-09-03T15:28:01.365Z,20.50
2018-09-03T15:30:29.565Z,20.50
2018-09-03T15:32:57.787Z,20.50
2018-09-03T15:35:26.015Z,20.50
2018-09-03T15:37:54.234Z,20.40
2018-09-03T15:40:22.535Z,20.40
2018-09-03T15:42:50.767Z,20.30
2018-09-03T15:45:19.377Z,20.30
2018-09-03T15:47:47.611Z,20.30
2018-09-03T15:50:15.815Z,20.30
2018-09-03T15:52:44.097Z,20.20
2018-09-03T15:55:12.272Z,20.20
2018-09-03T15:57:40.486Z,20.20
2018-09-03T16:00:09.522Z,20.20
2018-09-03T16:02:38.006Z,20.10
2018-09-03T16:05:06.246Z,20.10
2018-09-03T16:07:34.482Z,20.10
2018-09-03T16:10:02.741Z,20.10
2018-09-03T16:12:30.976Z,20.10
2018-09-03T16:14:59.185Z,20.10
2018-09-03T16:17:27.411Z,20.20
2018-09-03T16:19:55.619Z,20.20
2018-09-03T16:22:23.858Z,20.30
2018-09-03T16:24:52.062Z,20.30
2018-09-03T16:27:20.345Z,20.30
2018-09-03T16:29:48.531Z,20.30
2018-09-03T16:32:16.734Z,20.20
2018-09-03T16:34:44.970Z,20.20
2018-09-03T16:37:13.181Z,20.10
2018-09-03T16:39:41.442Z,20.10
2018-09-03T16:42:09.798Z,20.10
2018-09-03T16:44:37.890Z,20.00
2018-09-03T16:47:06.118Z,20.00
2018-09-03T16:49:34.352Z,20.00
2018-09-03T16:52:02.577Z,20.00
2018-09-03T16:54:30.812Z,19.90
2018-09-03T16:56:59.124Z,19.90
2018-09-03T16:59:27.359Z,19.90
2018-09-03T17:01:55.562Z,19.80
2018-09-03T17:04:23.785Z,19.70
2018-09-03T17:06:52.014Z,19.60
2018-09-03T17:09:20.246Z,19.60
2018-09-03T17:11:48.482Z,19.60
2018-09-03T17:14:16.699Z,19.50
2018-09-03T17:16:44.916Z,19.50
2018-09-03T17:19:13.134Z,19.60
2018-09-03T17:21:41.366Z,19.50
2018-09-03T17:24:09.595Z,19.40
2018-09-03T17:26:37.808Z,19.30
2018-09-03T17:29:06.047Z,19.20
2018-09-03T17:31:34.281Z,19.10
2018-09-03T17:34:02.572Z,19.10
2018-09-03T17:36:30.826Z,19.10
2018-09-03T17:38:59.071Z,19.00
2018-09-03T17:41:27.287Z,18.90
2018-09-03T17:43:55.523Z,18.90
2018-09-03T17:46:23.746Z,18.90
2018-09-03T17:48:51.992Z,18.80
2018-09-03T17:51:20.223Z,18.70
2018-09-03T17:53:48.439Z,18.70
2018-09-03T17:56:16.671Z,18.70
2018-09-03T17:58:44.879Z,18.50
2018-09-03T18:01:13.241Z,18.50
2018-09-03T18:03:41.468Z,18.60
2018-09-03T18:06:09.701Z,18.60
2018-09-03T18:08:37.915Z,18.60
2018-09-03T18:11:06.169Z,18.50
2018-09-03T18:13:34.378Z,18.50
2018-09-03T18:16:02.605Z,18.50
2018-09-03T18:18:30.811Z,18.50
2018-09-03T18:20:59.039Z,18.40
2018-09-03T18:23:27.234Z,18.30
2018-09-03T18:25:55.476Z,18.30
2018-09-03T18:28:23.705Z,18.30
2018-09-03T18:30:51.941Z,18.20
2018-09-03T18:33:20.192Z,18.20
2018-09-03T18:35:48.560Z,18.20
2018-09-03T18:38:16.770Z,18.20
2018-09-03T18:40:44.992Z,18.20
2018-09-03T18:43:13.238Z,18.20
2018-09-03T18:45:41.463Z,18.10
2018-09-03T18:48:09.685Z,18.00
2018-09-03T18:50:37.908Z,18.00
2018-09-03T18:53:06.139Z,18.00
2018-09-03T18:55:34.358Z,18.00
2018-09-03T18:58:02.573Z,17.90
2018-09-03T19:00:30.811Z,17.90
2018-09-03T19:02:59.035Z,17.90
2018-09-03T19:05:27.247Z,17.90
2018-09-03T19:07:55.479Z,17.80
2018-09-03T19:10:23.716Z,17.80
2018-09-03T19:12:51.944Z,17.80
2018-09-03T19:15:20.166Z,17.80
2018-09-03T19:17:48.394Z,17.80
2018-09-03T19:20:16.609Z,17.70
2018-09-03T19:22:44.861Z,17.80
2018-09-03T19:25:13.087Z,17.70
2018-09-03T19:27:41.316Z,17.70
2018-09-03T19:30:09.527Z,17.70
2018-09-03T19:32:37.754Z,17.70
2018-09-03T19:35:05.989Z,17.70
2018-09-03T19:37:34.211Z,17.70
2018-09-03T19:40:02.431Z,17.60
2018-09-03T19:42:30.642Z,17.60
2018-09-03T19:44:58.853Z,17.60
2018-09-03T19:47:27.070Z,17.50
2018-09-03T19:49:55.271Z,17.40
2018-09-03T19:52:23.494Z,17.40
2018-09-03T19:54:51.714Z,17.50
2018-09-03T19:57:19.938Z,17.40
2018-09-03T19:59:48.180Z,17.50
2018-09-03T20:02:16.484Z,17.40
2018-09-03T20:04:44.682Z,17.40
2018-09-03T20:07:12.928Z,17.50
2018-09-03T20:09:41.134Z,17.50
2018-09-03T20:12:09.352Z,17.50
2018-09-03T20:14:37.559Z,17.40
2018-09-03T20:17:05.811Z,17.40
2018-09-03T20:19:34.016Z,17.30
2018-09-03T20:22:02.236Z,17.30
2018-09-03T20:24:30.485Z,17.30
2018-09-03T20:26:58.722Z,17.40
2018-09-03T20:29:26.990Z,17.40
2018-09-03T20:31:55.198Z,17.30
2018-09-03T20:34:23.440Z,17.30
2018-09-03T20:36:51.655Z,17.30
2018-09-03T20:39:19.875Z,17.40
2018-09-03T20:41:48.088Z,17.40
2018-09-03T20:44:16.310Z,17.30
2018-09-03T20:46:44.519Z,17.40
2018-09-03T20:49:12.741Z,17.30
2018-09-03T20:51:41.031Z,17.30
2018-09-03T20:54:09.245Z,17.30
2018-09-03T20:56:37.447Z,17.20
2018-09-03T20:59:05.663Z,17.10
2018-09-03T21:01:40.519Z,17.10
2018-09-03T21:04:08.747Z,17.20
2018-09-03T21:06:36.959Z,17.20
2018-09-03T21:09:06.246Z,17.10
2018-09-03T21:11:34.731Z,17.10
2018-09-03T21:14:03.605Z,16.90
2018-09-03T21:16:31.771Z,16.80
2018-09-03T21:18:59.999Z,16.80
2018-09-03T21:21:28.211Z,16.70
2018-09-03T21:23:56.487Z,16.70
2018-09-03T21:26:24.667Z,17.00
2018-09-03T21:28:52.886Z,16.80
2018-09-03T21:31:21.098Z,16.70
2018-09-03T21:33:49.338Z,16.60
2018-09-03T21:36:17.563Z,16.50
2018-09-03T21:38:45.773Z,16.40
2018-09-03T21:41:13.995Z,16.40
2018-09-03T21:43:42.211Z,16.40
2018-09-03T21:46:10.419Z,16.20
2018-09-03T21:48:38.700Z,16.20
2018-09-03T21:51:06.902Z,16.10
2018-09-03T21:53:35.168Z,16.10
2018-09-03T21:56:03.387Z,16.10
2018-09-03T21:58:31.621Z,16.10
2018-09-03T22:00:59.841Z,16.10
2018-09-03T22:03:28.221Z,16.00
2018-09-03T22:05:56.823Z,16.10
2018-09-03T22:08:25.034Z,16.10
2018-09-03T22:10:53.262Z,16.00
2018-09-03T22:13:21.483Z,16.10
2018-09-03T22:15:56.325Z,16.20
2018-09-03T22:18:24.544Z,16.20
2018-09-03T22:20:52.775Z,16.10
2018-09-03T22:23:20.991Z,16.00
2018-09-03T22:25:49.215Z,15.90
2018-09-03T22:28:17.438Z,15.70
2018-09-03T22:30:45.663Z,15.80
2018-09-03T22:33:13.887Z,15.70
2018-09-03T22:35:42.114Z,15.70
2018-09-03T22:38:10.320Z,15.50
2018-09-03T22:40:38.545Z,15.60
2018-09-03T22:43:06.757Z,15.50
2018-09-03T22:45:34.984Z,15.50
2018-09-03T22:48:03.198Z,15.70
2018-09-03T22:50:31.481Z,15.50
2018-09-03T22:52:59.701Z,15.50
2018-09-03T22:55:27.935Z,15.50
2018-09-03T22:57:56.149Z,15.40
2018-09-03T23:00:24.359Z,15.40
2018-09-03T23:02:52.533Z,15.40
2018-09-03T23:05:20.721Z,15.60
2018-09-03T23:07:48.896Z,15.70
2018-09-03T23:10:17.097Z,15.70
2018-09-03T23:12:45.285Z,15.80
2018-09-03T23:15:13.462Z,15.70
2018-09-03T23:17:41.642Z,15.70
2018-09-03T23:20:09.815Z,15.60
2018-09-03T23:22:37.999Z,15.60
2018-09-03T23:25:06.193Z,15.70
2018-09-03T23:27:34.394Z,15.70
2018-09-03T23:30:02.585Z,15.60
2018-09-03T23:32:30.774Z,15.50
2018-09-03T23:34:58.975Z,15.40
2018-09-03T23:37:27.166Z,15.30
2018-09-03T23:39:55.344Z,15.30
2018-09-03T23:42:23.539Z,15.40
2018-09-03T23:44:51.716Z,15.20
2018-09-03T23:47:19.914Z,15.30
2018-09-03T23:49:48.094Z,15.40
2018-09-03T23:52:16.288Z,15.20
2018-09-03T23:54:44.665Z,15.00
2018-09-03T23:57:12.861Z,14.90
2018-09-03T23:59:41.065Z,14.90
